sensor_id;sensor_type;location;lat;lon;timestamp;temperature;humidity
70550;DHT22;58101;48.658;2.328;2023-03-14T00:01:52;10.80;99.90
70550;DHT22;58101;48.658;2.328;2023-03-14T00:04:18;10.70;99.90
70550;DHT22;58101;48.658;2.328;2023-03-14T00:06:43;10.80;99.90
70550;DHT22;58101;48.658;2.328;2023-03-14T00:09:09;10.70;99.90
70550;DHT22;58101;48.658;2.328;2023-03-14T00:11:35;10.70;99.90
70550;DHT22;58101;48.658;2.328;2023-03-14T00:14:01;10.60;99.90
70550;DHT22;58101;48.658;2.328;2023-03-14T00:16:26;10.60;99.90
70550;DHT22;58101;48.658;2.328;2023-03-14T00:18:52;10.60;99.90
70550;DHT22;58101;48.658;2.328;2023-03-14T00:21:18;10.60;99.90
70550;DHT22;58101;48.658;2.328;2023-03-14T00:23:44;10.50;99.90
70550;DHT22;58101;48.658;2.328;2023-03-14T00:26:12;10.60;99.90
70550;DHT22;58101;48.658;2.328;2023-03-14T00:28:38;10.50;99.90
70550;DHT22;58101;48.658;2.328;2023-03-14T00:31:09;10.50;99.90
70550;DHT22;58101;48.658;2.328;2023-03-14T00:36:59;10.50;99.90
70550;DHT22;58101;48.658;2.328;2023-03-14T00:39:24;10.50;99.90
70550;DHT22;58101;48.658;2.328;2023-03-14T00:41:50;10.50;99.90
70550;DHT22;58101;48.658;2.328;2023-03-14T00:44:21;10.50;99.90
70550;DHT22;58101;48.658;2.328;2023-03-14T00:46:50;10.50;99.90
70550;DHT22;58101;48.658;2.328;2023-03-14T00:49:15;10.50;99.90
70550;DHT22;58101;48.658;2.328;2023-03-14T00:51:41;10.50;99.90
70550;DHT22;58101;48.658;2.328;2023-03-14T00:54:06;10.50;99.90
70550;DHT22;58101;48.658;2.328;2023-03-14T00:56:32;10.60;99.90
70550;DHT22;58101;48.658;2.328;2023-03-14T00:58:58;10.60;99.90
70550;DHT22;58101;48.658;2.328;2023-03-14T01:01:24;10.60;99.90
70550;DHT22;58101;48.658;2.328;2023-03-14T01:03:54;10.60;99.90
70550;DHT22;58101;48.658;2.328;2023-03-14T01:06:25;10.60;99.90
70550;DHT22;58101;48.658;2.328;2023-03-14T01:08:57;10.70;99.90
70550;DHT22;58101;48.658;2.328;2023-03-14T01:11:28;10.60;99.90
70550;DHT22;58101;48.658;2.328;2023-03-14T01:13:54;10.60;99.90
70550;DHT22;58101;48.658;2.328;2023-03-14T01:16:22;10.60;99.90
70550;DHT22;58101;48.658;2.328;2023-03-14T01:18:48;10.70;99.90
70550;DHT22;58101;48.658;2.328;2023-03-14T01:21:19;10.60;99.90
70550;DHT22;58101;48.658;2.328;2023-03-14T01:23:52;10.70;99.90
70550;DHT22;58101;48.658;2.328;2023-03-14T01:26:20;10.70;99.90
70550;DHT22;58101;48.658;2.328;2023-03-14T01:28:47;10.70;99.90
70550;DHT22;58101;48.658;2.328;2023-03-14T01:31:13;10.70;99.90
70550;DHT22;58101;48.658;2.328;2023-03-14T01:33:39;10.70;99.90
70550;DHT22;58101;48.658;2.328;2023-03-14T01:36:05;10.50;99.90
70550;DHT22;58101;48.658;2.328;2023-03-14T01:38:33;10.60;99.90
70550;DHT22;58101;48.658;2.328;2023-03-14T01:40:59;10.50;99.90
70550;DHT22;58101;48.658;2.328;2023-03-14T01:43:25;10.50;99.90
70550;DHT22;58101;48.658;2.328;2023-03-14T01:48:36;10.50;99.90
70550;DHT22;58101;48.658;2.328;2023-03-14T01:51:06;10.50;99.90
70550;DHT22;58101;48.658;2.328;2023-03-14T01:53:33;10.40;99.90
70550;DHT22;58101;48.658;2.328;2023-03-14T01:55:59;10.40;99.90
70550;DHT22;58101;48.658;2.328;2023-03-14T01:58:27;10.40;99.90
70550;DHT22;58101;48.658;2.328;2023-03-14T02:00:57;10.40;99.90
70550;DHT22;58101;48.658;2.328;2023-03-14T02:03:25;10.30;99.90
70550;DHT22;58101;48.658;2.328;2023-03-14T02:05:54;10.60;99.90
70550;DHT22;58101;48.658;2.328;2023-03-14T02:08:22;10.40;99.90
70550;DHT22;58101;48.658;2.328;2023-03-14T02:10:49;10.40;99.90
70550;DHT22;58101;48.658;2.328;2023-03-14T02:13:17;10.50;99.90
70550;DHT22;58101;48.658;2.328;2023-03-14T02:15:43;10.50;99.90
70550;DHT22;58101;48.658;2.328;2023-03-14T02:18:10;10.50;99.90
70550;DHT22;58101;48.658;2.328;2023-03-14T02:23:49;10.50;99.90
70550;DHT22;58101;48.658;2.328;2023-03-14T02:26:34;10.50;99.90
70550;DHT22;58101;48.658;2.328;2023-03-14T02:29:02;10.50;99.90
70550;DHT22;58101;48.658;2.328;2023-03-14T02:31:27;10.50;99.90
70550;DHT22;58101;48.658;2.328;2023-03-14T02:33:53;10.50;99.90
70550;DHT22;58101;48.658;2.328;2023-03-14T02:36:20;10.50;99.90
70550;DHT22;58101;48.658;2.328;2023-03-14T02:38:51;10.50;99.90
70550;DHT22;58101;48.658;2.328;2023-03-14T02:41:18;10.50;99.90
70550;DHT22;58101;48.658;2.328;2023-03-14T02:43:44;10.40;99.90
70550;DHT22;58101;48.658;2.328;2023-03-14T02:46:20;10.50;99.90
70550;DHT22;58101;48.658;2.328;2023-03-14T02:51:20;10.50;99.90
70550;DHT22;58101;48.658;2.328;2023-03-14T02:53:46;10.50;99.90
70550;DHT22;58101;48.658;2.328;2023-03-14T02:56:11;10.40;99.90
70550;DHT22;58101;48.658;2.328;2023-03-14T02:58:37;10.40;99.90
70550;DHT22;58101;48.658;2.328;2023-03-14T03:01:03;10.50;99.90
70550;DHT22;58101;48.658;2.328;2023-03-14T03:03:29;10.50;99.90
70550;DHT22;58101;48.658;2.328;2023-03-14T03:05:55;10.50;99.90
70550;DHT22;58101;48.658;2.328;2023-03-14T03:08:23;10.60;99.90
70550;DHT22;58101;48.658;2.328;2023-03-14T03:10:49;10.40;99.90
70550;DHT22;58101;48.658;2.328;2023-03-14T03:13:15;10.40;99.90
70550;DHT22;58101;48.658;2.328;2023-03-14T03:15:41;10.30;99.90
70550;DHT22;58101;48.658;2.328;2023-03-14T03:18:07;10.40;99.90
70550;DHT22;58101;48.658;2.328;2023-03-14T03:20:32;10.50;99.90
70550;DHT22;58101;48.658;2.328;2023-03-14T03:22:59;10.50;99.90
70550;DHT22;58101;48.658;2.328;2023-03-14T03:25:25;10.50;99.90
70550;DHT22;58101;48.658;2.328;2023-03-14T03:27:50;10.50;99.90
70550;DHT22;58101;48.658;2.328;2023-03-14T03:30:16;10.50;99.90
70550;DHT22;58101;48.658;2.328;2023-03-14T03:32:42;10.50;99.90
70550;DHT22;58101;48.658;2.328;2023-03-14T03:35:09;10.50;99.90
70550;DHT22;58101;48.658;2.328;2023-03-14T03:37:34;10.50;99.90
70550;DHT22;58101;48.658;2.328;2023-03-14T03:40:00;10.40;99.90
70550;DHT22;58101;48.658;2.328;2023-03-14T03:42:27;10.30;99.90
70550;DHT22;58101;48.658;2.328;2023-03-14T03:44:52;10.40;99.90
70550;DHT22;58101;48.658;2.328;2023-03-14T03:47:18;10.40;99.90
70550;DHT22;58101;48.658;2.328;2023-03-14T03:49:44;10.40;99.90
70550;DHT22;58101;48.658;2.328;2023-03-14T03:52:09;10.30;99.90
70550;DHT22;58101;48.658;2.328;2023-03-14T03:54:35;10.30;99.90
70550;DHT22;58101;48.658;2.328;2023-03-14T03:57:01;10.30;99.90
70550;DHT22;58101;48.658;2.328;2023-03-14T03:59:27;10.40;99.90
70550;DHT22;58101;48.658;2.328;2023-03-14T04:01:52;10.40;99.90
70550;DHT22;58101;48.658;2.328;2023-03-14T04:04:18;10.30;99.90
70550;DHT22;58101;48.658;2.328;2023-03-14T04:06:44;10.20;99.90
70550;DHT22;58101;48.658;2.328;2023-03-14T04:09:10;10.30;99.90
70550;DHT22;58101;48.658;2.328;2023-03-14T04:11:36;10.30;99.90
70550;DHT22;58101;48.658;2.328;2023-03-14T04:14:02;10.40;99.90
70550;DHT22;58101;48.658;2.328;2023-03-14T04:16:28;10.30;99.90
70550;DHT22;58101;48.658;2.328;2023-03-14T04:18:57;10.30;99.90
70550;DHT22;58101;48.658;2.328;2023-03-14T04:21:22;10.40;99.90
70550;DHT22;58101;48.658;2.328;2023-03-14T04:23:48;10.30;99.90
70550;DHT22;58101;48.658;2.328;2023-03-14T04:26:14;10.30;99.90
70550;DHT22;58101;48.658;2.328;2023-03-14T04:28:40;10.30;99.90
70550;DHT22;58101;48.658;2.328;2023-03-14T04:31:10;10.30;99.90
70550;DHT22;58101;48.658;2.328;2023-03-14T04:33:36;10.30;99.90
70550;DHT22;58101;48.658;2.328;2023-03-14T04:36:03;10.30;99.90
70550;DHT22;58101;48.658;2.328;2023-03-14T04:38:29;10.30;99.90
70550;DHT22;58101;48.658;2.328;2023-03-14T04:40:55;10.30;99.90
70550;DHT22;58101;48.658;2.328;2023-03-14T04:43:20;10.40;99.90
70550;DHT22;58101;48.658;2.328;2023-03-14T04:45:46;10.40;99.90
70550;DHT22;58101;48.658;2.328;2023-03-14T04:48:11;10.40;99.90
70550;DHT22;58101;48.658;2.328;2023-03-14T04:50:38;10.50;99.90
70550;DHT22;58101;48.658;2.328;2023-03-14T04:53:05;10.40;99.90
70550;DHT22;58101;48.658;2.328;2023-03-14T04:55:31;10.40;99.90
70550;DHT22;58101;48.658;2.328;2023-03-14T04:58:00;10.40;99.90
70550;DHT22;58101;48.658;2.328;2023-03-14T05:00:25;10.50;99.90
70550;DHT22;58101;48.658;2.328;2023-03-14T05:02:51;10.40;99.90
70550;DHT22;58101;48.658;2.328;2023-03-14T05:05:17;10.50;99.90
70550;DHT22;58101;48.658;2.328;2023-03-14T05:07:42;10.40;99.90
70550;DHT22;58101;48.658;2.328;2023-03-14T05:10:09;10.30;99.90
70550;DHT22;58101;48.658;2.328;2023-03-14T05:12:35;10.10;99.90
70550;DHT22;58101;48.658;2.328;2023-03-14T05:15:00;9.80;99.90
70550;DHT22;58101;48.658;2.328;2023-03-14T05:17:26;9.90;99.90
70550;DHT22;58101;48.658;2.328;2023-03-14T05:19:52;9.70;99.90
70550;DHT22;58101;48.658;2.328;2023-03-14T05:22:17;9.60;99.90
70550;DHT22;58101;48.658;2.328;2023-03-14T05:24:43;9.40;99.90
70550;DHT22;58101;48.658;2.328;2023-03-14T05:27:09;9.40;99.90
70550;DHT22;58101;48.658;2.328;2023-03-14T05:29:34;9.30;99.90
70550;DHT22;58101;48.658;2.328;2023-03-14T05:32:00;9.20;99.90
70550;DHT22;58101;48.658;2.328;2023-03-14T05:34:26;9.30;99.90
70550;DHT22;58101;48.658;2.328;2023-03-14T05:36:52;9.10;99.90
70550;DHT22;58101;48.658;2.328;2023-03-14T05:39:17;9.00;99.90
70550;DHT22;58101;48.658;2.328;2023-03-14T05:41:43;8.80;99.90
70550;DHT22;58101;48.658;2.328;2023-03-14T05:44:08;8.90;99.90
70550;DHT22;58101;48.658;2.328;2023-03-14T05:46:34;8.80;99.90
70550;DHT22;58101;48.658;2.328;2023-03-14T05:49:00;8.80;99.90
70550;DHT22;58101;48.658;2.328;2023-03-14T05:51:26;8.80;99.90
70550;DHT22;58101;48.658;2.328;2023-03-14T05:53:51;8.80;99.90
70550;DHT22;58101;48.658;2.328;2023-03-14T05:56:17;8.70;99.90
70550;DHT22;58101;48.658;2.328;2023-03-14T05:58:42;8.70;99.90
70550;DHT22;58101;48.658;2.328;2023-03-14T06:01:08;8.60;99.90
70550;DHT22;58101;48.658;2.328;2023-03-14T06:03:34;8.60;99.90
70550;DHT22;58101;48.658;2.328;2023-03-14T06:06:00;8.50;99.90
70550;DHT22;58101;48.658;2.328;2023-03-14T06:08:26;8.50;99.90
70550;DHT22;58101;48.658;2.328;2023-03-14T06:10:52;8.40;99.90
70550;DHT22;58101;48.658;2.328;2023-03-14T06:13:18;8.40;99.90
70550;DHT22;58101;48.658;2.328;2023-03-14T06:15:44;8.40;99.90
70550;DHT22;58101;48.658;2.328;2023-03-14T06:18:10;8.30;99.90
70550;DHT22;58101;48.658;2.328;2023-03-14T06:20:39;8.30;99.90
70550;DHT22;58101;48.658;2.328;2023-03-14T06:23:06;8.30;99.90
70550;DHT22;58101;48.658;2.328;2023-03-14T06:25:32;8.30;99.90
70550;DHT22;58101;48.658;2.328;2023-03-14T06:27:57;8.30;99.90
70550;DHT22;58101;48.658;2.328;2023-03-14T06:30:23;8.30;99.90
70550;DHT22;58101;48.658;2.328;2023-03-14T06:32:49;8.30;99.90
70550;DHT22;58101;48.658;2.328;2023-03-14T06:35:14;8.30;99.90
70550;DHT22;58101;48.658;2.328;2023-03-14T06:37:40;8.20;99.90
70550;DHT22;58101;48.658;2.328;2023-03-14T06:40:06;8.20;99.90
70550;DHT22;58101;48.658;2.328;2023-03-14T06:42:33;8.30;99.90
70550;DHT22;58101;48.658;2.328;2023-03-14T06:45:02;8.20;99.90
70550;DHT22;58101;48.658;2.328;2023-03-14T06:47:28;8.20;99.90
70550;DHT22;58101;48.658;2.328;2023-03-14T06:49:54;8.20;99.90
70550;DHT22;58101;48.658;2.328;2023-03-14T06:52:20;8.30;99.90
70550;DHT22;58101;48.658;2.328;2023-03-14T06:54:45;8.40;99.90
70550;DHT22;58101;48.658;2.328;2023-03-14T06:57:11;8.40;99.90
70550;DHT22;58101;48.658;2.328;2023-03-14T06:59:36;8.40;99.90
70550;DHT22;58101;48.658;2.328;2023-03-14T07:02:02;8.50;99.90
70550;DHT22;58101;48.658;2.328;2023-03-14T07:04:29;8.40;99.90
70550;DHT22;58101;48.658;2.328;2023-03-14T07:06:54;8.50;99.90
70550;DHT22;58101;48.658;2.328;2023-03-14T07:09:20;8.40;99.90
70550;DHT22;58101;48.658;2.328;2023-03-14T07:11:46;8.40;99.90
70550;DHT22;58101;48.658;2.328;2023-03-14T07:14:12;8.50;99.90
70550;DHT22;58101;48.658;2.328;2023-03-14T07:16:37;8.50;99.90
70550;DHT22;58101;48.658;2.328;2023-03-14T07:19:21;8.50;99.90
70550;DHT22;58101;48.658;2.328;2023-03-14T07:25:01;8.60;99.90
70550;DHT22;58101;48.658;2.328;2023-03-14T07:27:27;8.60;99.90
70550;DHT22;58101;48.658;2.328;2023-03-14T07:29:52;8.60;99.90
70550;DHT22;58101;48.658;2.328;2023-03-14T07:32:40;8.50;99.90
70550;DHT22;58101;48.658;2.328;2023-03-14T07:35:06;8.60;99.90
70550;DHT22;58101;48.658;2.328;2023-03-14T07:40:38;8.70;99.90
70550;DHT22;58101;48.658;2.328;2023-03-14T07:43:04;8.80;99.90
70550;DHT22;58101;48.658;2.328;2023-03-14T07:48:35;9.00;99.90
70550;DHT22;58101;48.658;2.328;2023-03-14T07:51:07;9.00;99.90
70550;DHT22;58101;48.658;2.328;2023-03-14T07:56:49;9.10;99.90
70550;DHT22;58101;48.658;2.328;2023-03-14T07:59:18;9.20;99.90
70550;DHT22;58101;48.658;2.328;2023-03-14T08:01:44;9.40;99.90
70550;DHT22;58101;48.658;2.328;2023-03-14T08:04:16;9.50;99.90
70550;DHT22;58101;48.658;2.328;2023-03-14T08:07:14;9.80;99.90
70550;DHT22;58101;48.658;2.328;2023-03-14T08:09:42;10.20;99.90
70550;DHT22;58101;48.658;2.328;2023-03-14T08:12:08;10.60;99.90
70550;DHT22;58101;48.658;2.328;2023-03-14T08:14:34;11.00;99.90
70550;DHT22;58101;48.658;2.328;2023-03-14T08:16:59;11.10;99.90
70550;DHT22;58101;48.658;2.328;2023-03-14T08:20:03;11.10;96.20
70550;DHT22;58101;48.658;2.328;2023-03-14T08:22:57;11.20;95.10
70550;DHT22;58101;48.658;2.328;2023-03-14T08:25:24;11.50;98.60
70550;DHT22;58101;48.658;2.328;2023-03-14T08:27:49;12.10;90.30
70550;DHT22;58101;48.658;2.328;2023-03-14T08:30:17;13.20;80.80
70550;DHT22;58101;48.658;2.328;2023-03-14T08:32:43;14.40;73.30
70550;DHT22;58101;48.658;2.328;2023-03-14T08:35:09;15.30;62.60
70550;DHT22;58101;48.658;2.328;2023-03-14T08:37:35;16.20;59.30
70550;DHT22;58101;48.658;2.328;2023-03-14T08:40:20;17.10;55.40
70550;DHT22;58101;48.658;2.328;2023-03-14T08:42:46;16.50;53.60
70550;DHT22;58101;48.658;2.328;2023-03-14T08:45:13;16.30;56.30
70550;DHT22;58101;48.658;2.328;2023-03-14T08:47:40;15.70;56.80
70550;DHT22;58101;48.658;2.328;2023-03-14T08:53:00;15.40;58.30
70550;DHT22;58101;48.658;2.328;2023-03-14T08:55:26;15.70;58.00
70550;DHT22;58101;48.658;2.328;2023-03-14T08:57:55;16.10;56.70
70550;DHT22;58101;48.658;2.328;2023-03-14T09:00:42;16.80;56.50
70550;DHT22;58101;48.658;2.328;2023-03-14T09:03:07;17.70;53.40
70550;DHT22;58101;48.658;2.328;2023-03-14T09:05:33;17.90;50.90
70550;DHT22;58101;48.658;2.328;2023-03-14T09:08:08;17.60;50.00
70550;DHT22;58101;48.658;2.328;2023-03-14T09:10:34;17.20;52.10
70550;DHT22;58101;48.658;2.328;2023-03-14T09:13:00;16.80;53.20
70550;DHT22;58101;48.658;2.328;2023-03-14T09:15:25;16.00;53.90
70550;DHT22;58101;48.658;2.328;2023-03-14T09:17:54;15.40;54.80
70550;DHT22;58101;48.658;2.328;2023-03-14T09:20:19;14.60;56.50
70550;DHT22;58101;48.658;2.328;2023-03-14T09:22:45;14.00;59.10
70550;DHT22;58101;48.658;2.328;2023-03-14T09:25:11;13.60;60.70
70550;DHT22;58101;48.658;2.328;2023-03-14T09:27:37;13.30;62.40
70550;DHT22;58101;48.658;2.328;2023-03-14T09:30:03;13.30;63.10
70550;DHT22;58101;48.658;2.328;2023-03-14T09:32:30;13.30;64.60
70550;DHT22;58101;48.658;2.328;2023-03-14T09:38:12;13.50;61.80
70550;DHT22;58101;48.658;2.328;2023-03-14T09:40:38;13.20;63.30
70550;DHT22;58101;48.658;2.328;2023-03-14T09:43:05;13.00;62.80
70550;DHT22;58101;48.658;2.328;2023-03-14T09:45:36;12.60;65.10
70550;DHT22;58101;48.658;2.328;2023-03-14T09:48:14;12.30;67.90
70550;DHT22;58101;48.658;2.328;2023-03-14T09:50:48;12.00;71.40
70550;DHT22;58101;48.658;2.328;2023-03-14T09:53:19;12.60;80.10
70550;DHT22;58101;48.658;2.328;2023-03-14T09:55:47;13.70;71.40
70550;DHT22;58101;48.658;2.328;2023-03-14T09:58:19;15.60;63.30
70550;DHT22;58101;48.658;2.328;2023-03-14T10:00:45;17.40;57.00
70550;DHT22;58101;48.658;2.328;2023-03-14T10:05:40;19.90;46.70
70550;DHT22;58101;48.658;2.328;2023-03-14T10:08:09;20.50;44.20
70550;DHT22;58101;48.658;2.328;2023-03-14T10:10:35;20.20;41.50
70550;DHT22;58101;48.658;2.328;2023-03-14T10:13:19;20.60;42.70
70550;DHT22;58101;48.658;2.328;2023-03-14T10:15:52;21.50;40.40
70550;DHT22;58101;48.658;2.328;2023-03-14T10:18:18;22.40;37.80
70550;DHT22;58101;48.658;2.328;2023-03-14T10:20:45;21.80;37.10
70550;DHT22;58101;48.658;2.328;2023-03-14T10:25:38;20.30;38.60
70550;DHT22;58101;48.658;2.328;2023-03-14T10:28:05;18.80;40.40
70550;DHT22;58101;48.658;2.328;2023-03-14T10:30:39;17.80;45.40
70550;DHT22;58101;48.658;2.328;2023-03-14T10:33:30;16.40;47.50
70550;DHT22;58101;48.658;2.328;2023-03-14T10:36:20;15.30;52.60
70550;DHT22;58101;48.658;2.328;2023-03-14T10:38:47;14.50;58.20
70550;DHT22;58101;48.658;2.328;2023-03-14T10:41:26;14.00;59.00
70550;DHT22;58101;48.658;2.328;2023-03-14T10:43:57;13.70;62.40
70550;DHT22;58101;48.658;2.328;2023-03-14T10:46:25;13.50;64.20
70550;DHT22;58101;48.658;2.328;2023-03-14T10:48:53;13.40;66.20
70550;DHT22;58101;48.658;2.328;2023-03-14T10:51:28;13.80;64.30
70550;DHT22;58101;48.658;2.328;2023-03-14T10:54:15;15.10;62.00
70550;DHT22;58101;48.658;2.328;2023-03-14T10:56:44;16.90;55.20
70550;DHT22;58101;48.658;2.328;2023-03-14T10:59:14;18.80;45.40
70550;DHT22;58101;48.658;2.328;2023-03-14T11:01:55;20.40;42.20
70550;DHT22;58101;48.658;2.328;2023-03-14T11:10:08;20.20;36.60
70550;DHT22;58101;48.658;2.328;2023-03-14T11:18:41;18.40;41.50
70550;DHT22;58101;48.658;2.328;2023-03-14T11:21:13;18.60;41.40
70550;DHT22;58101;48.658;2.328;2023-03-14T11:26:57;17.90;39.20
70550;DHT22;58101;48.658;2.328;2023-03-14T11:29:28;17.80;40.00
70550;DHT22;58101;48.658;2.328;2023-03-14T11:31:59;18.10;40.10
70550;DHT22;58101;48.658;2.328;2023-03-14T11:34:29;18.60;37.50
70550;DHT22;58101;48.658;2.328;2023-03-14T11:37:09;20.00;37.20
70550;DHT22;58101;48.658;2.328;2023-03-14T11:39:40;21.10;33.90
70550;DHT22;58101;48.658;2.328;2023-03-14T11:42:13;21.60;34.50
70550;DHT22;58101;48.658;2.328;2023-03-14T11:44:40;22.00;32.60
70550;DHT22;58101;48.658;2.328;2023-03-14T11:52:35;20.50;34.10
70550;DHT22;58101;48.658;2.328;2023-03-14T11:55:05;20.90;33.90
70550;DHT22;58101;48.658;2.328;2023-03-14T11:57:32;21.60;32.40
70550;DHT22;58101;48.658;2.328;2023-03-14T12:00:19;21.70;31.10
70550;DHT22;58101;48.658;2.328;2023-03-14T12:10:23;20.20;31.40
70550;DHT22;58101;48.658;2.328;2023-03-14T12:12:49;19.00;33.70
70550;DHT22;58101;48.658;2.328;2023-03-14T12:15:20;18.30;34.20
70550;DHT22;58101;48.658;2.328;2023-03-14T12:17:46;18.00;37.70
70550;DHT22;58101;48.658;2.328;2023-03-14T12:20:18;17.90;37.20
70550;DHT22;58101;48.658;2.328;2023-03-14T12:22:53;18.20;37.00
70550;DHT22;58101;48.658;2.328;2023-03-14T12:28:03;18.10;35.50
70550;DHT22;58101;48.658;2.328;2023-03-14T12:30:40;17.80;35.30
70550;DHT22;58101;48.658;2.328;2023-03-14T12:35:45;18.60;37.70
70550;DHT22;58101;48.658;2.328;2023-03-14T12:41:15;17.20;38.10
70550;DHT22;58101;48.658;2.328;2023-03-14T12:43:42;16.40;38.10
70550;DHT22;58101;48.658;2.328;2023-03-14T12:48:34;15.50;41.90
70550;DHT22;58101;48.658;2.328;2023-03-14T12:51:05;15.30;43.50
70550;DHT22;58101;48.658;2.328;2023-03-14T12:56:58;14.80;44.90
70550;DHT22;58101;48.658;2.328;2023-03-14T12:59:30;14.30;44.90
70550;DHT22;58101;48.658;2.328;2023-03-14T13:13:03;13.20;52.10
70550;DHT22;58101;48.658;2.328;2023-03-14T13:15:40;13.00;53.10
70550;DHT22;58101;48.658;2.328;2023-03-14T16:22:52;8.60;99.90
70550;DHT22;58101;48.658;2.328;2023-03-14T16:25:29;8.70;99.90
70550;DHT22;58101;48.658;2.328;2023-03-14T16:27:55;8.60;99.90
70550;DHT22;58101;48.658;2.328;2023-03-14T16:30:21;8.80;99.90
70550;DHT22;58101;48.658;2.328;2023-03-14T16:32:47;9.00;99.90
70550;DHT22;58101;48.658;2.328;2023-03-14T16:35:13;9.10;99.90
70550;DHT22;58101;48.658;2.328;2023-03-14T16:37:38;9.10;99.90
70550;DHT22;58101;48.658;2.328;2023-03-14T16:42:39;9.00;99.90
70550;DHT22;58101;48.658;2.328;2023-03-14T16:45:05;8.90;99.90
70550;DHT22;58101;48.658;2.328;2023-03-14T16:47:31;8.90;99.90
70550;DHT22;58101;48.658;2.328;2023-03-14T16:49:56;8.90;99.90
70550;DHT22;58101;48.658;2.328;2023-03-14T16:52:22;8.90;99.90
70550;DHT22;58101;48.658;2.328;2023-03-14T16:54:49;8.90;99.90
70550;DHT22;58101;48.658;2.328;2023-03-14T16:57:14;8.90;99.90
70550;DHT22;58101;48.658;2.328;2023-03-14T16:59:40;9.00;99.90
70550;DHT22;58101;48.658;2.328;2023-03-14T17:02:06;9.00;99.90
70550;DHT22;58101;48.658;2.328;2023-03-14T17:04:31;8.90;99.90
70550;DHT22;58101;48.658;2.328;2023-03-14T17:06:57;8.90;99.90
70550;DHT22;58101;48.658;2.328;2023-03-14T17:09:23;8.90;99.90
70550;DHT22;58101;48.658;2.328;2023-03-14T17:11:48;8.80;99.90
70550;DHT22;58101;48.658;2.328;2023-03-14T17:14:14;9.00;99.90
70550;DHT22;58101;48.658;2.328;2023-03-14T17:16:39;8.80;99.90
70550;DHT22;58101;48.658;2.328;2023-03-14T17:19:05;8.70;99.90
70550;DHT22;58101;48.658;2.328;2023-03-14T17:21:31;8.80;99.90
70550;DHT22;58101;48.658;2.328;2023-03-14T17:23:56;8.70;99.90
70550;DHT22;58101;48.658;2.328;2023-03-14T17:26:22;8.70;99.90
70550;DHT22;58101;48.658;2.328;2023-03-14T17:28:47;8.70;99.90
70550;DHT22;58101;48.658;2.328;2023-03-14T17:31:16;8.60;99.90
70550;DHT22;58101;48.658;2.328;2023-03-14T17:33:42;8.60;99.90
70550;DHT22;58101;48.658;2.328;2023-03-14T17:36:09;8.60;99.90
70550;DHT22;58101;48.658;2.328;2023-03-14T17:38:37;8.50;99.90
70550;DHT22;58101;48.658;2.328;2023-03-14T17:41:07;8.50;99.90
70550;DHT22;58101;48.658;2.328;2023-03-14T17:43:41;8.50;99.90
70550;DHT22;58101;48.658;2.328;2023-03-14T17:46:11;8.50;99.90
70550;DHT22;58101;48.658;2.328;2023-03-14T17:48:40;8.50;99.90
70550;DHT22;58101;48.658;2.328;2023-03-14T17:51:07;8.50;99.90
70550;DHT22;58101;48.658;2.328;2023-03-14T17:53:33;8.50;99.90
70550;DHT22;58101;48.658;2.328;2023-03-14T17:55:58;8.50;99.90
70550;DHT22;58101;48.658;2.328;2023-03-14T17:58:24;8.40;99.90
70550;DHT22;58101;48.658;2.328;2023-03-14T18:00:51;8.40;99.90
70550;DHT22;58101;48.658;2.328;2023-03-14T18:03:17;8.50;99.90
70550;DHT22;58101;48.658;2.328;2023-03-14T18:05:42;8.50;99.90
70550;DHT22;58101;48.658;2.328;2023-03-14T18:08:11;8.40;99.90
70550;DHT22;58101;48.658;2.328;2023-03-14T18:10:37;8.50;99.90
70550;DHT22;58101;48.658;2.328;2023-03-14T18:13:03;8.50;99.90
70550;DHT22;58101;48.658;2.328;2023-03-14T18:15:29;8.50;99.90
70550;DHT22;58101;48.658;2.328;2023-03-14T18:17:59;8.50;99.90
70550;DHT22;58101;48.658;2.328;2023-03-14T18:20:26;8.50;99.90
70550;DHT22;58101;48.658;2.328;2023-03-14T18:22:51;8.40;99.90
70550;DHT22;58101;48.658;2.328;2023-03-14T18:25:17;8.50;99.90
70550;DHT22;58101;48.658;2.328;2023-03-14T18:27:43;8.50;99.90
70550;DHT22;58101;48.658;2.328;2023-03-14T18:30:09;8.60;99.90
70550;DHT22;58101;48.658;2.328;2023-03-14T18:32:35;8.50;99.90
70550;DHT22;58101;48.658;2.328;2023-03-14T18:35:01;8.40;99.90
70550;DHT22;58101;48.658;2.328;2023-03-14T18:37:26;8.50;99.90
70550;DHT22;58101;48.658;2.328;2023-03-14T18:39:52;8.50;99.90
70550;DHT22;58101;48.658;2.328;2023-03-14T18:44:56;8.50;99.90
70550;DHT22;58101;48.658;2.328;2023-03-14T18:47:21;8.40;99.90
70550;DHT22;58101;48.658;2.328;2023-03-14T18:50:14;8.40;99.90
70550;DHT22;58101;48.658;2.328;2023-03-14T18:52:40;8.50;99.90
70550;DHT22;58101;48.658;2.328;2023-03-14T18:55:06;8.40;99.90
70550;DHT22;58101;48.658;2.328;2023-03-14T18:58:00;8.40;99.90
70550;DHT22;58101;48.658;2.328;2023-03-14T19:00:26;8.40;99.90
70550;DHT22;58101;48.658;2.328;2023-03-14T19:02:52;8.30;99.90
70550;DHT22;58101;48.658;2.328;2023-03-14T19:05:18;8.30;99.90
70550;DHT22;58101;48.658;2.328;2023-03-14T19:07:43;8.30;99.90
70550;DHT22;58101;48.658;2.328;2023-03-14T19:10:10;8.20;99.90
70550;DHT22;58101;48.658;2.328;2023-03-14T19:15:07;8.10;99.90
70550;DHT22;58101;48.658;2.328;2023-03-14T19:17:33;8.10;99.90
70550;DHT22;58101;48.658;2.328;2023-03-14T19:19:59;8.20;99.90
70550;DHT22;58101;48.658;2.328;2023-03-14T19:22:25;8.20;99.90
70550;DHT22;58101;48.658;2.328;2023-03-14T19:24:50;8.20;99.90
70550;DHT22;58101;48.658;2.328;2023-03-14T19:27:17;8.20;99.90
70550;DHT22;58101;48.658;2.328;2023-03-14T19:29:46;8.30;99.90
70550;DHT22;58101;48.658;2.328;2023-03-14T19:32:17;8.30;99.90
70550;DHT22;58101;48.658;2.328;2023-03-14T19:34:43;8.30;99.90
70550;DHT22;58101;48.658;2.328;2023-03-14T19:37:09;8.20;99.90
70550;DHT22;58101;48.658;2.328;2023-03-14T19:39:35;8.40;99.90
70550;DHT22;58101;48.658;2.328;2023-03-14T19:42:01;8.20;99.90
70550;DHT22;58101;48.658;2.328;2023-03-14T19:44:26;8.10;99.90
70550;DHT22;58101;48.658;2.328;2023-03-14T19:46:54;8.10;99.90
70550;DHT22;58101;48.658;2.328;2023-03-14T19:49:20;8.00;99.90
70550;DHT22;58101;48.658;2.328;2023-03-14T19:51:47;8.00;99.90
70550;DHT22;58101;48.658;2.328;2023-03-14T19:54:13;8.00;99.90
70550;DHT22;58101;48.658;2.328;2023-03-14T19:56:39;8.00;99.90
70550;DHT22;58101;48.658;2.328;2023-03-14T20:01:37;7.90;99.90
70550;DHT22;58101;48.658;2.328;2023-03-14T20:04:03;7.80;99.90
70550;DHT22;58101;48.658;2.328;2023-03-14T20:06:29;7.90;99.90
70550;DHT22;58101;48.658;2.328;2023-03-14T20:08:58;7.80;99.90
70550;DHT22;58101;48.658;2.328;2023-03-14T20:11:24;7.80;99.90
70550;DHT22;58101;48.658;2.328;2023-03-14T20:13:49;7.90;99.90
70550;DHT22;58101;48.658;2.328;2023-03-14T20:16:15;7.80;99.90
70550;DHT22;58101;48.658;2.328;2023-03-14T20:18:41;7.70;99.90
70550;DHT22;58101;48.658;2.328;2023-03-14T20:21:08;7.70;99.90
70550;DHT22;58101;48.658;2.328;2023-03-14T20:23:37;7.70;99.90
70550;DHT22;58101;48.658;2.328;2023-03-14T20:26:03;7.60;99.90